sensor_id;sensor_type;location;lat;lon;timestamp;P1;durP1;ratioP1;P2;durP2;ratioP2
19905;SDS011;10115;50.906;4.438;2022-09-03T00:01:20;10.33;;;3.40;;
19905;SDS011;10115;50.906;4.438;2022-09-03T00:03:56;3.23;;;2.93;;
19905;SDS011;10115;50.906;4.438;2022-09-03T00:06:33;3.50;;;3.20;;
19905;SDS011;10115;50.906;4.438;2022-09-03T00:11:57;3.80;;;3.50;;
19905;SDS011;10115;50.906;4.438;2022-09-03T00:15:19;5.93;;;3.83;;
19905;SDS011;10115;50.906;4.438;2022-09-03T00:23:02;3.50;;;3.20;;
19905;SDS011;10115;50.906;4.438;2022-09-03T00:25:38;3.40;;;3.10;;
19905;SDS011;10115;50.906;4.438;2022-09-03T00:28:13;4.20;;;3.03;;
19905;SDS011;10115;50.906;4.438;2022-09-03T00:30:45;3.30;;;3.10;;
19905;SDS011;10115;50.906;4.438;2022-09-03T00:33:21;3.57;;;3.33;;
19905;SDS011;10115;50.906;4.438;2022-09-03T00:36:03;2.80;;;2.70;;
19905;SDS011;10115;50.906;4.438;2022-09-03T00:38:38;3.13;;;2.93;;
19905;SDS011;10115;50.906;4.438;2022-09-03T00:46:39;3.40;;;3.20;;
19905;SDS011;10115;50.906;4.438;2022-09-03T00:49:20;4.33;;;3.57;;
19905;SDS011;10115;50.906;4.438;2022-09-03T00:57:35;9.73;;;3.27;;
19905;SDS011;10115;50.906;4.438;2022-09-03T01:00:17;4.07;;;3.67;;
19905;SDS011;10115;50.906;4.438;2022-09-03T01:08:04;3.67;;;3.40;;
19905;SDS011;10115;50.906;4.438;2022-09-03T01:11:01;3.93;;;3.63;;
19905;SDS011;10115;50.906;4.438;2022-09-03T01:30:48;3.13;;;2.97;;
19905;SDS011;10115;50.906;4.438;2022-09-03T01:39:37;3.30;;;3.10;;
19905;SDS011;10115;50.906;4.438;2022-09-03T01:42:25;3.30;;;3.10;;
19905;SDS011;10115;50.906;4.438;2022-09-03T01:50:24;15.07;;;3.10;;
19905;SDS011;10115;50.906;4.438;2022-09-03T01:52:58;3.10;;;3.00;;
19905;SDS011;10115;50.906;4.438;2022-09-03T01:55:45;3.47;;;3.27;;
19905;SDS011;10115;50.906;4.438;2022-09-03T01:58:43;3.47;;;2.93;;
19905;SDS011;10115;50.906;4.438;2022-09-03T02:01:19;3.50;;;3.20;;
19905;SDS011;10115;50.906;4.438;2022-09-03T02:03:52;3.13;;;2.97;;
19905;SDS011;10115;50.906;4.438;2022-09-03T02:06:24;2.93;;;2.77;;
19905;SDS011;10115;50.906;4.438;2022-09-03T02:08:50;4.10;;;2.87;;
19905;SDS011;10115;50.906;4.438;2022-09-03T02:11:16;3.33;;;3.13;;
19905;SDS011;10115;50.906;4.438;2022-09-03T02:13:49;2.90;;;2.80;;
19905;SDS011;10115;50.906;4.438;2022-09-03T02:16:20;5.13;;;3.30;;
19905;SDS011;10115;50.906;4.438;2022-09-03T02:18:55;4.83;;;3.47;;
19905;SDS011;10115;50.906;4.438;2022-09-03T02:21:23;3.17;;;2.87;;
19905;SDS011;10115;50.906;4.438;2022-09-03T02:23:51;3.10;;;2.60;;
19905;SDS011;10115;50.906;4.438;2022-09-03T02:26:18;3.47;;;3.17;;
19905;SDS011;10115;50.906;4.438;2022-09-03T02:28:47;3.13;;;2.93;;
19905;SDS011;10115;50.906;4.438;2022-09-03T02:31:13;5.97;;;2.80;;
19905;SDS011;10115;50.906;4.438;2022-09-03T02:33:39;3.27;;;3.00;;
19905;SDS011;10115;50.906;4.438;2022-09-03T02:36:09;4.10;;;2.53;;
19905;SDS011;10115;50.906;4.438;2022-09-03T02:38:36;3.30;;;3.10;;
19905;SDS011;10115;50.906;4.438;2022-09-03T02:41:02;6.57;;;3.17;;
19905;SDS011;10115;50.906;4.438;2022-09-03T02:46:20;3.50;;;3.30;;
19905;SDS011;10115;50.906;4.438;2022-09-03T02:49:01;9.67;;;3.10;;
19905;SDS011;10115;50.906;4.438;2022-09-03T02:51:30;3.23;;;2.90;;
19905;SDS011;10115;50.906;4.438;2022-09-03T02:53:57;3.57;;;3.33;;
19905;SDS011;10115;50.906;4.438;2022-09-03T02:56:23;3.30;;;3.07;;
19905;SDS011;10115;50.906;4.438;2022-09-03T02:58:51;4.83;;;2.73;;
19905;SDS011;10115;50.906;4.438;2022-09-03T03:01:18;3.53;;;3.23;;
19905;SDS011;10115;50.906;4.438;2022-09-03T03:03:47;3.27;;;3.07;;
19905;SDS011;10115;50.906;4.438;2022-09-03T03:06:12;2.80;;;2.70;;
19905;SDS011;10115;50.906;4.438;2022-09-03T03:08:38;4.80;;;2.90;;
19905;SDS011;10115;50.906;4.438;2022-09-03T03:11:04;3.33;;;3.13;;
19905;SDS011;10115;50.906;4.438;2022-09-03T03:13:31;5.67;;;3.17;;
19905;SDS011;10115;50.906;4.438;2022-09-03T03:16:02;3.30;;;3.10;;
19905;SDS011;10115;50.906;4.438;2022-09-03T03:18:30;3.10;;;2.90;;
19905;SDS011;10115;50.906;4.438;2022-09-03T03:20:56;6.87;;;3.17;;
19905;SDS011;10115;50.906;4.438;2022-09-03T03:23:22;3.80;;;3.60;;
19905;SDS011;10115;50.906;4.438;2022-09-03T03:25:48;3.67;;;3.47;;
19905;SDS011;10115;50.906;4.438;2022-09-03T03:28:13;4.47;;;3.17;;
19905;SDS011;10115;50.906;4.438;2022-09-03T03:30:39;3.80;;;3.50;;
19905;SDS011;10115;50.906;4.438;2022-09-03T03:33:07;3.97;;;3.67;;
19905;SDS011;10115;50.906;4.438;2022-09-03T03:35:34;3.37;;;3.13;;
19905;SDS011;10115;50.906;4.438;2022-09-03T03:38:00;3.07;;;2.97;;
19905;SDS011;10115;50.906;4.438;2022-09-03T03:40:26;7.43;;;3.77;;
19905;SDS011;10115;50.906;4.438;2022-09-03T03:42:51;5.27;;;3.93;;
19905;SDS011;10115;50.906;4.438;2022-09-03T03:45:17;3.70;;;3.10;;
19905;SDS011;10115;50.906;4.438;2022-09-03T03:47:43;3.97;;;3.67;;
19905;SDS011;10115;50.906;4.438;2022-09-03T03:50:09;3.90;;;3.60;;
19905;SDS011;10115;50.906;4.438;2022-09-03T03:52:34;3.73;;;3.47;;
19905;SDS011;10115;50.906;4.438;2022-09-03T03:55:03;3.87;;;3.57;;
19905;SDS011;10115;50.906;4.438;2022-09-03T03:57:29;3.73;;;3.53;;
19905;SDS011;10115;50.906;4.438;2022-09-03T03:59:56;4.27;;;3.23;;
19905;SDS011;10115;50.906;4.438;2022-09-03T04:02:21;3.67;;;3.33;;
19905;SDS011;10115;50.906;4.438;2022-09-03T04:04:47;3.77;;;3.47;;
19905;SDS011;10115;50.906;4.438;2022-09-03T04:07:13;4.20;;;3.90;;
19905;SDS011;10115;50.906;4.438;2022-09-03T04:09:38;4.27;;;3.87;;
19905;SDS011;10115;50.906;4.438;2022-09-03T04:12:04;4.50;;;4.10;;
19905;SDS011;10115;50.906;4.438;2022-09-03T04:14:32;3.73;;;3.50;;
19905;SDS011;10115;50.906;4.438;2022-09-03T04:16:59;3.83;;;3.57;;
19905;SDS011;10115;50.906;4.438;2022-09-03T04:19:26;4.20;;;3.90;;
19905;SDS011;10115;50.906;4.438;2022-09-03T04:21:54;3.97;;;3.70;;
19905;SDS011;10115;50.906;4.438;2022-09-03T04:24:20;4.20;;;3.87;;
19905;SDS011;10115;50.906;4.438;2022-09-03T04:26:46;3.60;;;3.40;;
19905;SDS011;10115;50.906;4.438;2022-09-03T04:29:14;3.33;;;3.03;;
19905;SDS011;10115;50.906;4.438;2022-09-03T04:31:40;3.57;;;3.37;;
19905;SDS011;10115;50.906;4.438;2022-09-03T04:34:25;4.63;;;3.23;;
19905;SDS011;10115;50.906;4.438;2022-09-03T04:36:51;3.80;;;3.53;;
19905;SDS011;10115;50.906;4.438;2022-09-03T04:39:18;8.13;;;3.20;;
19905;SDS011;10115;50.906;4.438;2022-09-03T04:41:47;4.47;;;4.07;;
19905;SDS011;10115;50.906;4.438;2022-09-03T04:44:12;6.37;;;3.53;;
19905;SDS011;10115;50.906;4.438;2022-09-03T04:46:38;4.13;;;3.83;;
19905;SDS011;10115;50.906;4.438;2022-09-03T04:49:04;4.97;;;3.50;;
19905;SDS011;10115;50.906;4.438;2022-09-03T04:51:33;3.77;;;3.50;;
19905;SDS011;10115;50.906;4.438;2022-09-03T04:54:00;4.10;;;3.70;;
19905;SDS011;10115;50.906;4.438;2022-09-03T04:56:27;3.33;;;3.13;;
19905;SDS011;10115;50.906;4.438;2022-09-03T04:58:55;4.00;;;3.60;;
19905;SDS011;10115;50.906;4.438;2022-09-03T05:01:23;4.90;;;3.40;;
19905;SDS011;10115;50.906;4.438;2022-09-03T05:03:51;3.77;;;3.57;;
19905;SDS011;10115;50.906;4.438;2022-09-03T05:06:16;3.67;;;3.47;;
19905;SDS011;10115;50.906;4.438;2022-09-03T05:08:46;3.97;;;3.67;;
19905;SDS011;10115;50.906;4.438;2022-09-03T05:11:15;3.53;;;3.33;;
19905;SDS011;10115;50.906;4.438;2022-09-03T05:13:41;3.80;;;3.50;;
19905;SDS011;10115;50.906;4.438;2022-09-03T05:16:08;4.07;;;3.77;;
19905;SDS011;10115;50.906;4.438;2022-09-03T05:18:35;4.40;;;4.03;;
19905;SDS011;10115;50.906;4.438;2022-09-03T05:21:06;8.17;;;3.93;;
19905;SDS011;10115;50.906;4.438;2022-09-03T05:23:37;4.53;;;4.20;;
19905;SDS011;10115;50.906;4.438;2022-09-03T05:26:05;4.70;;;4.30;;
19905;SDS011;10115;50.906;4.438;2022-09-03T05:28:33;3.93;;;3.73;;
19905;SDS011;10115;50.906;4.438;2022-09-03T05:31:07;5.03;;;4.10;;
19905;SDS011;10115;50.906;4.438;2022-09-03T05:33:35;4.50;;;4.13;;
19905;SDS011;10115;50.906;4.438;2022-09-03T05:36:03;4.33;;;3.93;;
19905;SDS011;10115;50.906;4.438;2022-09-03T05:38:30;4.33;;;3.97;;
19905;SDS011;10115;50.906;4.438;2022-09-03T05:41:00;6.27;;;4.20;;
19905;SDS011;10115;50.906;4.438;2022-09-03T05:43:28;4.63;;;4.23;;
19905;SDS011;10115;50.906;4.438;2022-09-03T05:45:59;4.60;;;4.20;;
19905;SDS011;10115;50.906;4.438;2022-09-03T05:48:26;7.03;;;4.27;;
19905;SDS011;10115;50.906;4.438;2022-09-03T05:51:15;4.67;;;4.27;;
19905;SDS011;10115;50.906;4.438;2022-09-03T05:53:43;4.63;;;4.23;;
19905;SDS011;10115;50.906;4.438;2022-09-03T05:56:11;3.93;;;3.63;;
19905;SDS011;10115;50.906;4.438;2022-09-03T05:58:42;4.60;;;4.10;;
19905;SDS011;10115;50.906;4.438;2022-09-03T06:01:13;4.37;;;3.97;;
19905;SDS011;10115;50.906;4.438;2022-09-03T06:03:40;7.77;;;3.70;;
19905;SDS011;10115;50.906;4.438;2022-09-03T06:06:07;4.57;;;4.27;;
19905;SDS011;10115;50.906;4.438;2022-09-03T06:08:34;3.97;;;3.67;;
19905;SDS011;10115;50.906;4.438;2022-09-03T06:11:02;4.37;;;4.07;;
19905;SDS011;10115;50.906;4.438;2022-09-03T06:13:28;4.33;;;3.97;;
19905;SDS011;10115;50.906;4.438;2022-09-03T06:16:02;4.00;;;3.67;;
19905;SDS011;10115;50.906;4.438;2022-09-03T06:18:30;4.67;;;4.27;;
19905;SDS011;10115;50.906;4.438;2022-09-03T06:20:57;4.07;;;3.77;;
19905;SDS011;10115;50.906;4.438;2022-09-03T06:23:25;5.07;;;4.07;;
19905;SDS011;10115;50.906;4.438;2022-09-03T06:26:25;7.50;;;5.10;;
19905;SDS011;10115;50.906;4.438;2022-09-03T06:28:44;4.47;;;4.13;;
19905;SDS011;10115;50.906;4.438;2022-09-03T06:31:13;5.43;;;4.77;;
19905;SDS011;10115;50.906;4.438;2022-09-03T06:33:43;6.13;;;4.47;;
19905;SDS011;10115;50.906;4.438;2022-09-03T06:36:10;4.27;;;3.70;;
19905;SDS011;10115;50.906;4.438;2022-09-03T06:38:40;4.20;;;3.90;;
19905;SDS011;10115;50.906;4.438;2022-09-03T06:43:36;4.50;;;4.00;;
19905;SDS011;10115;50.906;4.438;2022-09-03T06:46:13;4.50;;;4.10;;
19905;SDS011;10115;50.906;4.438;2022-09-03T06:48:40;4.83;;;4.33;;
19905;SDS011;10115;50.906;4.438;2022-09-03T06:51:08;4.50;;;4.20;;
19905;SDS011;10115;50.906;4.438;2022-09-03T06:53:39;4.20;;;3.90;;
19905;SDS011;10115;50.906;4.438;2022-09-03T06:56:08;4.60;;;3.80;;
19905;SDS011;10115;50.906;4.438;2022-09-03T06:58:36;5.77;;;4.00;;
19905;SDS011;10115;50.906;4.438;2022-09-03T07:01:10;4.60;;;4.20;;
19905;SDS011;10115;50.906;4.438;2022-09-03T07:03:39;3.80;;;3.50;;
19905;SDS011;10115;50.906;4.438;2022-09-03T07:06:12;3.70;;;3.50;;
19905;SDS011;10115;50.906;4.438;2022-09-03T07:08:40;3.77;;;3.47;;
19905;SDS011;10115;50.906;4.438;2022-09-03T07:11:10;4.13;;;3.57;;
19905;SDS011;10115;50.906;4.438;2022-09-03T07:13:41;4.87;;;4.53;;
19905;SDS011;10115;50.906;4.438;2022-09-03T07:16:16;5.40;;;3.83;;
19905;SDS011;10115;50.906;4.438;2022-09-03T07:18:46;15.20;;;3.77;;
19905;SDS011;10115;50.906;4.438;2022-09-03T07:21:13;3.87;;;3.57;;
19905;SDS011;10115;50.906;4.438;2022-09-03T07:24:00;3.70;;;3.50;;
19905;SDS011;10115;50.906;4.438;2022-09-03T07:26:31;4.17;;;3.87;;
19905;SDS011;10115;50.906;4.438;2022-09-03T07:28:59;4.00;;;3.70;;
19905;SDS011;10115;50.906;4.438;2022-09-03T07:31:26;3.50;;;3.30;;
19905;SDS011;10115;50.906;4.438;2022-09-03T07:33:55;3.50;;;3.30;;
19905;SDS011;10115;50.906;4.438;2022-09-03T07:36:21;3.47;;;3.27;;
19905;SDS011;10115;50.906;4.438;2022-09-03T07:38:48;6.83;;;3.33;;
19905;SDS011;10115;50.906;4.438;2022-09-03T07:41:15;3.50;;;3.30;;
19905;SDS011;10115;50.906;4.438;2022-09-03T07:43:42;3.23;;;3.00;;
19905;SDS011;10115;50.906;4.438;2022-09-03T07:46:16;4.27;;;3.90;;
19905;SDS011;10115;50.906;4.438;2022-09-03T07:48:57;3.50;;;3.30;;
19905;SDS011;10115;50.906;4.438;2022-09-03T07:51:24;3.60;;;3.33;;
19905;SDS011;10115;50.906;4.438;2022-09-03T07:53:56;3.60;;;3.33;;
19905;SDS011;10115;50.906;4.438;2022-09-03T07:56:23;3.87;;;3.40;;
19905;SDS011;10115;50.906;4.438;2022-09-03T07:58:51;3.40;;;3.20;;
19905;SDS011;10115;50.906;4.438;2022-09-03T08:01:18;3.40;;;3.13;;
19905;SDS011;10115;50.906;4.438;2022-09-03T08:03:46;3.87;;;3.57;;
19905;SDS011;10115;50.906;4.438;2022-09-03T08:06:17;3.63;;;3.27;;
19905;SDS011;10115;50.906;4.438;2022-09-03T08:08:45;3.83;;;3.60;;
19905;SDS011;10115;50.906;4.438;2022-09-03T08:11:12;4.73;;;3.37;;
19905;SDS011;10115;50.906;4.438;2022-09-03T08:13:44;3.63;;;3.33;;
19905;SDS011;10115;50.906;4.438;2022-09-03T08:16:12;3.17;;;2.87;;
19905;SDS011;10115;50.906;4.438;2022-09-03T08:18:39;4.17;;;3.60;;
19905;SDS011;10115;50.906;4.438;2022-09-03T08:21:06;3.50;;;3.20;;
19905;SDS011;10115;50.906;4.438;2022-09-03T08:23:36;3.60;;;3.40;;
19905;SDS011;10115;50.906;4.438;2022-09-03T08:26:03;4.17;;;3.70;;
19905;SDS011;10115;50.906;4.438;2022-09-03T08:28:31;4.00;;;3.60;;
19905;SDS011;10115;50.906;4.438;2022-09-03T08:31:03;3.20;;;3.03;;
19905;SDS011;10115;50.906;4.438;2022-09-03T08:33:30;3.27;;;3.07;;
19905;SDS011;10115;50.906;4.438;2022-09-03T08:36:06;3.63;;;3.33;;
19905;SDS011;10115;50.906;4.438;2022-09-03T08:38:36;3.13;;;2.93;;
19905;SDS011;10115;50.906;4.438;2022-09-03T08:43:47;3.40;;;3.17;;
19905;SDS011;10115;50.906;4.438;2022-09-03T08:46:24;3.20;;;3.00;;
19905;SDS011;10115;50.906;4.438;2022-09-03T08:48:58;3.20;;;2.90;;
19905;SDS011;10115;50.906;4.438;2022-09-03T08:51:25;3.80;;;3.10;;
19905;SDS011;10115;50.906;4.438;2022-09-03T08:53:53;3.50;;;3.30;;
19905;SDS011;10115;50.906;4.438;2022-09-03T08:56:27;3.77;;;3.47;;
19905;SDS011;10115;50.906;4.438;2022-09-03T08:58:57;4.17;;;3.50;;
19905;SDS011;10115;50.906;4.438;2022-09-03T09:04:35;3.80;;;3.50;;
19905;SDS011;10115;50.906;4.438;2022-09-03T09:12:57;5.43;;;3.23;;
19905;SDS011;10115;50.906;4.438;2022-09-03T09:18:35;3.20;;;3.00;;
19905;SDS011;10115;50.906;4.438;2022-09-03T09:21:10;3.37;;;3.07;;
19905;SDS011;10115;50.906;4.438;2022-09-03T09:23:47;3.53;;;3.33;;
19905;SDS011;10115;50.906;4.438;2022-09-03T09:26:15;3.60;;;3.40;;
19905;SDS011;10115;50.906;4.438;2022-09-03T09:28:42;3.53;;;3.23;;
19905;SDS011;10115;50.906;4.438;2022-09-03T09:31:11;3.90;;;3.60;;
19905;SDS011;10115;50.906;4.438;2022-09-03T09:33:40;3.75;;;3.22;;
19905;SDS011;10115;50.906;4.438;2022-09-03T09:36:10;5.23;;;3.83;;
19905;SDS011;10115;50.906;4.438;2022-09-03T09:38:41;4.30;;;3.90;;
19905;SDS011;10115;50.906;4.438;2022-09-03T09:41:11;5.00;;;3.50;;
19905;SDS011;10115;50.906;4.438;2022-09-03T09:43:40;5.13;;;4.15;;
19905;SDS011;10115;50.906;4.438;2022-09-03T09:46:08;3.70;;;3.40;;
19905;SDS011;10115;50.906;4.438;2022-09-03T09:48:50;3.92;;;3.35;;
19905;SDS011;10115;50.906;4.438;2022-09-03T09:51:24;4.17;;;3.87;;
19905;SDS011;10115;50.906;4.438;2022-09-03T09:54:02;4.07;;;3.77;;
19905;SDS011;10115;50.906;4.438;2022-09-03T09:56:36;3.60;;;3.30;;
19905;SDS011;10115;50.906;4.438;2022-09-03T09:59:06;4.13;;;3.03;;
19905;SDS011;10115;50.906;4.438;2022-09-03T10:01:35;7.80;;;3.60;;
19905;SDS011;10115;50.906;4.438;2022-09-03T10:06:36;3.10;;;2.90;;
19905;SDS011;10115;50.906;4.438;2022-09-03T10:09:28;4.30;;;3.87;;
19905;SDS011;10115;50.906;4.438;2022-09-03T10:12:01;3.33;;;3.10;;
19905;SDS011;10115;50.906;4.438;2022-09-03T10:15:10;4.07;;;3.67;;
19905;SDS011;10115;50.906;4.438;2022-09-03T10:23:42;4.07;;;3.78;;
19905;SDS011;10115;50.906;4.438;2022-09-03T10:28:20;3.53;;;3.30;;
19905;SDS011;10115;50.906;4.438;2022-09-03T10:30:55;4.47;;;3.63;;
19905;SDS011;10115;50.906;4.438;2022-09-03T10:36:45;4.32;;;3.92;;
19905;SDS011;10115;50.906;4.438;2022-09-03T10:41:54;3.72;;;3.42;;
19905;SDS011;10115;50.906;4.438;2022-09-03T10:50:02;4.05;;;3.65;;
19905;SDS011;10115;50.906;4.438;2022-09-03T10:55:46;6.72;;;4.20;;
19905;SDS011;10115;50.906;4.438;2022-09-03T11:01:12;5.80;;;4.10;;
19905;SDS011;10115;50.906;4.438;2022-09-03T11:03:50;4.97;;;4.43;;
19905;SDS011;10115;50.906;4.438;2022-09-03T11:06:53;5.05;;;4.55;;
19905;SDS011;10115;50.906;4.438;2022-09-03T11:11:59;7.45;;;3.63;;
19905;SDS011;10115;50.906;4.438;2022-09-03T11:15:15;4.22;;;3.72;;
19905;SDS011;10115;50.906;4.438;2022-09-03T11:17:51;3.85;;;3.55;;
19905;SDS011;10115;50.906;4.438;2022-09-03T11:20:23;4.50;;;4.03;;
19905;SDS011;10115;50.906;4.438;2022-09-03T11:22:54;4.53;;;4.03;;
19905;SDS011;10115;50.906;4.438;2022-09-03T11:25:29;4.57;;;4.18;;
19905;SDS011;10115;50.906;4.438;2022-09-03T11:33:13;4.85;;;4.15;;
19905;SDS011;10115;50.906;4.438;2022-09-03T11:35:48;4.20;;;3.80;;
19905;SDS011;10115;50.906;4.438;2022-09-03T11:38:25;4.97;;;4.30;;
19905;SDS011;10115;50.906;4.438;2022-09-03T11:43:27;4.03;;;3.53;;
19905;SDS011;10115;50.906;4.438;2022-09-03T11:53:59;7.47;;;4.78;;
19905;SDS011;10115;50.906;4.438;2022-09-03T11:56:25;8.55;;;4.78;;
19905;SDS011;10115;50.906;4.438;2022-09-03T12:01:48;4.93;;;4.53;;
19905;SDS011;10115;50.906;4.438;2022-09-03T12:04:20;5.72;;;4.47;;
19905;SDS011;10115;50.906;4.438;2022-09-03T12:09:59;4.15;;;3.75;;
19905;SDS011;10115;50.906;4.438;2022-09-03T12:18:03;4.97;;;4.00;;
19905;SDS011;10115;50.906;4.438;2022-09-03T12:20:58;7.68;;;4.28;;
19905;SDS011;10115;50.906;4.438;2022-09-03T12:26:10;4.57;;;4.18;;
19905;SDS011;10115;50.906;4.438;2022-09-03T12:28:43;6.85;;;4.60;;
19905;SDS011;10115;50.906;4.438;2022-09-03T12:31:23;5.00;;;4.50;;
19905;SDS011;10115;50.906;4.438;2022-09-03T12:33:55;6.22;;;5.32;;
19905;SDS011;10115;50.906;4.438;2022-09-03T12:36:38;5.50;;;4.05;;
19905;SDS011;10115;50.906;4.438;2022-09-03T12:39:11;5.50;;;4.40;;
19905;SDS011;10115;50.906;4.438;2022-09-03T12:42:02;5.75;;;5.13;;
19905;SDS011;10115;50.906;4.438;2022-09-03T12:47:16;4.80;;;4.40;;
19905;SDS011;10115;50.906;4.438;2022-09-03T12:49:44;4.53;;;4.13;;
19905;SDS011;10115;50.906;4.438;2022-09-03T12:58:00;6.85;;;3.83;;
19905;SDS011;10115;50.906;4.438;2022-09-03T13:00:56;4.00;;;3.50;;
19905;SDS011;10115;50.906;4.438;2022-09-03T13:03:33;6.70;;;4.25;;
19905;SDS011;10115;50.906;4.438;2022-09-03T13:06:21;3.47;;;3.20;;
19905;SDS011;10115;50.906;4.438;2022-09-03T13:08:56;8.07;;;4.07;;
19905;SDS011;10115;50.906;4.438;2022-09-03T13:11:25;3.83;;;3.40;;
19905;SDS011;10115;50.906;4.438;2022-09-03T13:14:02;4.03;;;3.65;;
19905;SDS011;10115;50.906;4.438;2022-09-03T13:30:22;3.50;;;3.20;;
19905;SDS011;10115;50.906;4.438;2022-09-03T13:44:07;3.80;;;3.13;;
19905;SDS011;10115;50.906;4.438;2022-09-03T13:47:01;3.50;;;3.20;;
19905;SDS011;10115;50.906;4.438;2022-09-03T13:49:42;4.20;;;3.33;;
19905;SDS011;10115;50.906;4.438;2022-09-03T13:55:40;4.60;;;3.08;;
19905;SDS011;10115;50.906;4.438;2022-09-03T13:58:15;3.20;;;3.00;;
19905;SDS011;10115;50.906;4.438;2022-09-03T14:03:47;3.15;;;2.78;;
19905;SDS011;10115;50.906;4.438;2022-09-03T14:06:34;3.38;;;2.60;;
19905;SDS011;10115;50.906;4.438;2022-09-03T14:20:28;2.97;;;2.60;;
19905;SDS011;10115;50.906;4.438;2022-09-03T14:25:56;3.55;;;2.28;;
19905;SDS011;10115;50.906;4.438;2022-09-03T14:33:51;3.00;;;2.80;;
19905;SDS011;10115;50.906;4.438;2022-09-03T14:39:45;3.65;;;2.78;;
19905;SDS011;10115;50.906;4.438;2022-09-03T14:42:28;3.15;;;2.88;;
19905;SDS011;10115;50.906;4.438;2022-09-03T14:45:12;5.75;;;3.50;;
19905;SDS011;10115;50.906;4.438;2022-09-03T15:01:01;2.85;;;2.65;;
19905;SDS011;10115;50.906;4.438;2022-09-03T15:06:22;2.60;;;2.40;;
19905;SDS011;10115;50.906;4.438;2022-09-03T15:11:51;2.97;;;2.78;;
19905;SDS011;10115;50.906;4.438;2022-09-03T15:14:21;2.88;;;2.67;;
19905;SDS011;10115;50.906;4.438;2022-09-03T15:17:25;3.30;;;3.10;;
19905;SDS011;10115;50.906;4.438;2022-09-03T15:20:02;2.45;;;2.28;;
19905;SDS011;10115;50.906;4.438;2022-09-03T15:25:39;5.60;;;2.45;;
19905;SDS011;10115;50.906;4.438;2022-09-03T15:31:01;2.83;;;2.63;;
19905;SDS011;10115;50.906;4.438;2022-09-03T15:33:45;2.72;;;2.53;;
19905;SDS011;10115;50.906;4.438;2022-09-03T15:36:22;2.92;;;2.72;;
19905;SDS011;10115;50.906;4.438;2022-09-03T15:39:03;2.63;;;2.42;;
19905;SDS011;10115;50.906;4.438;2022-09-03T15:41:42;2.70;;;2.50;;
19905;SDS011;10115;50.906;4.438;2022-09-03T15:44:21;2.47;;;2.38;;
19905;SDS011;10115;50.906;4.438;2022-09-03T15:49:43;4.18;;;2.60;;
19905;SDS011;10115;50.906;4.438;2022-09-03T15:52:31;2.97;;;2.50;;
19905;SDS011;10115;50.906;4.438;2022-09-03T15:55:38;3.67;;;3.38;;
19905;SDS011;10115;50.906;4.438;2022-09-03T15:58:25;3.40;;;3.15;;
19905;SDS011;10115;50.906;4.438;2022-09-03T16:00:56;3.35;;;3.05;;
19905;SDS011;10115;50.906;4.438;2022-09-03T16:04:00;3.28;;;3.00;;
19905;SDS011;10115;50.906;4.438;2022-09-03T16:17:57;2.92;;;2.72;;
19905;SDS011;10115;50.906;4.438;2022-09-03T16:20:42;2.95;;;2.75;;
19905;SDS011;10115;50.906;4.438;2022-09-03T16:26:04;2.75;;;2.63;;
19905;SDS011;10115;50.906;4.438;2022-09-03T16:31:44;3.35;;;3.05;;
19905;SDS011;10115;50.906;4.438;2022-09-03T16:43:06;3.75;;;2.75;;
19905;SDS011;10115;50.906;4.438;2022-09-03T16:48:31;2.85;;;2.65;;
19905;SDS011;10115;50.906;4.438;2022-09-03T16:56:40;3.83;;;3.05;;
19905;SDS011;10115;50.906;4.438;2022-09-03T17:02:15;4.43;;;2.92;;
19905;SDS011;10115;50.906;4.438;2022-09-03T17:16:26;6.05;;;3.45;;
19905;SDS011;10115;50.906;4.438;2022-09-03T17:40:25;2.55;;;2.35;;
19905;SDS011;10115;50.906;4.438;2022-09-03T17:48:51;2.58;;;2.38;;
19905;SDS011;10115;50.906;4.438;2022-09-03T17:56:50;2.65;;;2.50;;
19905;SDS011;10115;50.906;4.438;2022-09-03T18:08:21;2.95;;;2.75;;
19905;SDS011;10115;50.906;4.438;2022-09-03T18:11:10;3.35;;;2.67;;
19905;SDS011;10115;50.906;4.438;2022-09-03T18:14:10;2.60;;;2.50;;
19905;SDS011;10115;50.906;4.438;2022-09-03T18:16:53;7.78;;;2.58;;
19905;SDS011;10115;50.906;4.438;2022-09-03T18:22:31;3.05;;;2.45;;
19905;SDS011;10115;50.906;4.438;2022-09-03T18:25:27;3.38;;;2.83;;
19905;SDS011;10115;50.906;4.438;2022-09-03T18:28:15;2.38;;;2.28;;
19905;SDS011;10115;50.906;4.438;2022-09-03T18:31:14;2.30;;;2.20;;
19905;SDS011;10115;50.906;4.438;2022-09-03T18:34:00;2.60;;;2.40;;
19905;SDS011;10115;50.906;4.438;2022-09-03T18:36:46;2.88;;;2.60;;
19905;SDS011;10115;50.906;4.438;2022-09-03T18:39:31;2.80;;;2.60;;
19905;SDS011;10115;50.906;4.438;2022-09-03T18:42:28;2.60;;;2.40;;
19905;SDS011;10115;50.906;4.438;2022-09-03T18:51:52;2.37;;;2.27;;
19905;SDS011;10115;50.906;4.438;2022-09-03T18:55:07;4.47;;;2.80;;
19905;SDS011;10115;50.906;4.438;2022-09-03T18:58:22;2.57;;;2.47;;
19905;SDS011;10115;50.906;4.438;2022-09-03T19:04:23;3.23;;;2.90;;
19905;SDS011;10115;50.906;4.438;2022-09-03T19:07:10;3.03;;;2.70;;
19905;SDS011;10115;50.906;4.438;2022-09-03T19:16:11;2.80;;;2.60;;
19905;SDS011;10115;50.906;4.438;2022-09-03T19:22:25;2.80;;;2.60;;
19905;SDS011;10115;50.906;4.438;2022-09-03T19:25:14;4.23;;;2.53;;
19905;SDS011;10115;50.906;4.438;2022-09-03T19:28:03;2.30;;;2.10;;
19905;SDS011;10115;50.906;4.438;2022-09-03T19:48:35;2.90;;;2.70;;
19905;SDS011;10115;50.906;4.438;2022-09-03T19:54:32;2.47;;;2.37;;
19905;SDS011;10115;50.906;4.438;2022-09-03T19:57:18;5.13;;;2.57;;
19905;SDS011;10115;50.906;4.438;2022-09-03T20:00:03;2.90;;;2.70;;
19905;SDS011;10115;50.906;4.438;2022-09-03T20:02:48;2.77;;;2.57;;
19905;SDS011;10115;50.906;4.438;2022-09-03T20:05:33;3.00;;;2.50;;
19905;SDS011;10115;50.906;4.438;2022-09-03T20:08:19;3.43;;;3.07;;
19905;SDS011;10115;50.906;4.438;2022-09-03T20:11:05;4.63;;;2.90;;
19905;SDS011;10115;50.906;4.438;2022-09-03T20:13:42;2.63;;;2.50;;
19905;SDS011;10115;50.906;4.438;2022-09-03T20:19:53;3.00;;;2.70;;
19905;SDS011;10115;50.906;4.438;2022-09-03T20:22:54;2.80;;;2.60;;
19905;SDS011;10115;50.906;4.438;2022-09-03T20:31:13;2.80;;;2.60;;
19905;SDS011;10115;50.906;4.438;2022-09-03T20:36:43;3.00;;;2.67;;
19905;SDS011;10115;50.906;4.438;2022-09-03T20:51:41;2.73;;;2.53;;
19905;SDS011;10115;50.906;4.438;2022-09-03T20:54:36;3.17;;;2.87;;
19905;SDS011;10115;50.906;4.438;2022-09-03T21:00:11;2.70;;;2.60;;
19905;SDS011;10115;50.906;4.438;2022-09-03T21:18:46;3.93;;;3.53;;
19905;SDS011;10115;50.906;4.438;2022-09-03T21:25:12;3.50;;;3.20;;
19905;SDS011;10115;50.906;4.438;2022-09-03T21:27:21;2.93;;;2.73;;
19905;SDS011;10115;50.906;4.438;2022-09-03T21:30:11;4.30;;;3.43;;
19905;SDS011;10115;50.906;4.438;2022-09-03T21:32:45;11.47;;;3.27;;
19905;SDS011;10115;50.906;4.438;2022-09-03T21:38:00;2.80;;;2.60;;
19905;SDS011;10115;50.906;4.438;2022-09-03T21:40:30;3.23;;;2.93;;
19905;SDS011;10115;50.906;4.438;2022-09-03T21:43:11;2.97;;;2.77;;
19905;SDS011;10115;50.906;4.438;2022-09-03T21:45:49;3.07;;;2.87;;
19905;SDS011;10115;50.906;4.438;2022-09-03T21:48:23;3.20;;;2.93;;
19905;SDS011;10115;50.906;4.438;2022-09-03T21:50:56;3.37;;;3.10;;
19905;SDS011;10115;50.906;4.438;2022-09-03T21:53:35;3.67;;;3.17;;
19905;SDS011;10115;50.906;4.438;2022-09-03T22:02:07;3.17;;;2.93;;
19905;SDS011;10115;50.906;4.438;2022-09-03T22:04:33;2.60;;;2.47;;
19905;SDS011;10115;50.906;4.438;2022-09-03T22:12:40;3.10;;;2.90;;
19905;SDS011;10115;50.906;4.438;2022-09-03T22:15:33;3.70;;;3.40;;
19905;SDS011;10115;50.906;4.438;2022-09-03T22:18:09;2.90;;;2.70;;
19905;SDS011;10115;50.906;4.438;2022-09-03T22:20:47;3.27;;;2.97;;
19905;SDS011;10115;50.906;4.438;2022-09-03T22:23:35;3.17;;;2.90;;
19905;SDS011;10115;50.906;4.438;2022-09-03T22:26:26;3.20;;;3.00;;
19905;SDS011;10115;50.906;4.438;2022-09-03T22:29:11;2.50;;;2.40;;
19905;SDS011;10115;50.906;4.438;2022-09-03T22:31:42;3.67;;;3.37;;